メインページ
METAR-TAF:

METAR-TAF

空港 :

マラボ国際空港

マラボ, 赤道ギニア

緯度: 03-45-18N, 経度: 08-42-31E, 海抜: 23m

現時点の気象観測

当レポートは21分前の06:00(UTC)に作成
の風 15kt
気温 26°C
湿度 89%
気圧 1010 hPa
視程: 6000m
高度800ftの雲は散在している
高度2000ftの雲はほとんどない, 積乱雲.
高度6000ftの千切れ雲あり
激しい雷雨, 小雨

METAR: FGSL 220600Z 09015KT 6000 -TSRA SCT008 FEW020CB BKN060 26/24 Q1010 TEMPO 4000 TSRA

時間: 07:21 (06:21 UTC)

予報

当レポートは7時間21分前の23:00(UTC)に作成
予報は22日の 00時(UTC)から 22日の 24時(UTC)まで有効
南/南西の風 8kt
視程: 8000m
高度1000ftの雲は散在している
高度2000ftの雲はほとんどない, 積乱雲.
22日の 02時(UTC)から 22日の 06時(UTC)まで一時的に
視程: 4000m
高度800ftの千切れ雲あり
高度1600ftの雲はほとんどない, 積乱雲.
激しい雷雨, 雨
22日の 08時(UTC)から 22日の 10時(UTC)まで徐々に
22日の 15時(UTC)から 22日の 21時(UTC)まで一時的に
高度1000ftの雲は散在している
高度2000ftの雲はほとんどない, 積乱雲.
激しい雷雨

TAF: FGSL 212300Z 2200/2224 21008KT 8000 SCT010 FEW020CB TEMPO 2202/2206 4000 TSRA BKN008 FEW016CB BECMG 2208/2210 NSW TEMPO 2215/2221 TS SCT010 FEW020CB

4,000以上の空港の気象観測と天気予報(METAR報とTAF報)

利用可能な観測所は地図上に黄色い丸と赤い丸で示す。

丸の上にカーソルを重ねると観測所名を参照できる。

次にクリックすると気象観測と天気予報を参照できる。

マップの切り替え:黒色「×」印の緑ボタンをクリックして拡大、「-」印の緑ボタンをクリックして縮小、緑色の三角印をクリックして隣りの地図に切り替え


METAR-TAF: